createdAt,value
2017-09-27T11:57:57.879Z,20.30
2017-09-27T12:00:26.235Z,22.40
2017-09-27T12:02:54.596Z,20.90
2017-09-27T12:05:22.999Z,22.13
2017-09-27T12:07:51.330Z,21.50
2017-09-27T12:10:19.687Z,21.90
2017-09-27T12:12:48.056Z,23.33
2017-09-27T12:15:17.166Z,22.10
2017-09-27T12:17:45.546Z,22.63
2017-09-27T12:20:13.897Z,21.50
2017-09-27T12:22:42.259Z,21.27
2017-09-27T12:25:10.597Z,23.40
2017-09-27T12:27:38.969Z,21.57
2017-09-27T12:30:07.308Z,22.00
2017-09-27T12:32:36.469Z,21.00
2017-09-27T12:35:04.840Z,21.60
2017-09-27T12:37:33.998Z,21.83
2017-09-27T12:40:03.108Z,23.83
2017-09-27T12:42:31.683Z,23.60
2017-09-27T12:45:00.131Z,23.53
2017-09-27T12:47:28.655Z,21.70
2017-09-27T12:49:57.135Z,21.53
2017-09-27T12:52:25.570Z,20.40
2017-09-27T12:54:53.992Z,19.93
2017-09-27T12:57:22.531Z,20.93
2017-09-27T12:59:51.030Z,19.40
2017-09-27T13:02:20.272Z,20.30
2017-09-27T13:04:48.864Z,21.00
2017-09-27T13:07:17.365Z,22.00
2017-09-27T13:09:45.797Z,21.60
2017-09-27T13:12:14.333Z,21.60
2017-09-27T13:14:43.636Z,20.70
2017-09-27T13:17:12.919Z,20.97
2017-09-27T13:19:41.413Z,20.23
2017-09-27T13:22:09.906Z,20.70
2017-09-27T13:24:39.125Z,22.13
2017-09-27T13:27:08.328Z,20.00
2017-09-27T13:29:37.650Z,19.57
2017-09-27T13:32:06.088Z,21.17
2017-09-27T13:34:34.588Z,21.00
2017-09-27T13:37:03.855Z,22.23
2017-09-27T13:39:32.369Z,20.80
2017-09-27T13:42:01.990Z,19.30
2017-09-27T13:44:30.493Z,19.30
2017-09-27T13:46:58.980Z,18.90
2017-09-27T13:49:27.493Z,17.73
2017-09-27T13:51:55.961Z,15.87
2017-09-27T13:54:24.498Z,17.57
2017-09-27T13:56:53.719Z,17.30
2017-09-27T13:59:22.202Z,19.37
2017-09-27T14:01:51.465Z,19.43
2017-09-27T14:04:19.952Z,17.30
2017-09-27T14:06:48.402Z,19.63
2017-09-27T14:09:16.880Z,19.13
2017-09-27T14:11:45.378Z,17.80
2017-09-27T14:14:14.637Z,18.20
2017-09-27T14:16:43.116Z,18.20
2017-09-27T14:19:11.800Z,18.20
2017-09-27T14:21:40.882Z,17.30
2017-09-27T14:24:09.225Z,17.00
2017-09-27T14:26:37.553Z,18.13
2017-09-27T14:29:06.674Z,16.93
2017-09-27T14:31:35.018Z,17.97
2017-09-27T14:34:03.346Z,18.30
2017-09-27T14:36:31.693Z,18.53
2017-09-27T14:39:00.025Z,16.87
2017-09-27T14:41:28.364Z,18.43
2017-09-27T14:43:56.689Z,17.63
2017-09-27T14:46:25.047Z,18.20
2017-09-27T14:48:53.361Z,16.00
2017-09-27T14:51:21.718Z,17.10
2017-09-27T14:53:50.042Z,16.00
2017-09-27T14:56:19.145Z,17.00
2017-09-27T14:58:47.614Z,16.67
2017-09-27T15:01:16.716Z,16.30
2017-09-27T15:03:45.798Z,18.20
2017-09-27T15:06:14.140Z,17.13
2017-09-27T15:08:42.466Z,15.83
2017-09-27T15:11:11.577Z,17.37
2017-09-27T15:13:39.903Z,15.90
2017-09-27T15:16:08.249Z,15.73
2017-09-27T15:18:36.579Z,16.07
2017-09-27T15:21:04.925Z,18.30
2017-09-27T15:23:33.246Z,17.33
2017-09-27T15:26:01.589Z,16.77
2017-09-27T15:28:29.914Z,16.90
2017-09-27T15:30:59.096Z,17.50
2017-09-27T15:33:27.418Z,17.63
2017-09-27T15:35:55.752Z,17.40
2017-09-27T15:38:24.093Z,18.03
2017-09-27T15:40:52.412Z,16.60
2017-09-27T15:43:20.760Z,16.87
2017-09-27T15:45:49.089Z,17.67
2017-09-27T15:48:18.196Z,15.80
2017-09-27T15:50:46.517Z,15.63
2017-09-27T15:53:14.858Z,18.80
2017-09-27T15:55:43.176Z,15.57
2017-09-27T15:58:11.526Z,15.10
2017-09-27T16:00:39.889Z,16.47
2017-09-27T16:03:08.241Z,15.87
2017-09-27T16:05:36.567Z,16.30
2017-09-27T16:08:04.918Z,15.33
2017-09-27T16:10:33.253Z,15.43
2017-09-27T16:13:01.588Z,16.00
2017-09-27T16:15:29.918Z,18.03
2017-09-27T16:17:58.274Z,18.30
2017-09-27T16:20:26.593Z,15.60
2017-09-27T16:22:54.934Z,14.40
2017-09-27T16:25:23.249Z,13.17
2017-09-27T16:27:51.601Z,14.90
2017-09-27T16:30:19.918Z,13.70
2017-09-27T16:32:49.046Z,13.37
2017-09-27T16:35:17.395Z,12.97
2017-09-27T16:37:46.472Z,15.37
2017-09-27T16:40:14.818Z,14.43
2017-09-27T16:42:43.143Z,13.50
2017-09-27T16:45:11.514Z,13.27
2017-09-27T16:47:40.617Z,13.03
2017-09-27T16:50:09.732Z,13.10
2017-09-27T16:52:38.067Z,14.30
2017-09-27T16:55:06.418Z,13.57
2017-09-27T16:57:34.738Z,13.63
2017-09-27T17:00:03.093Z,13.80
2017-09-27T17:02:31.430Z,14.67
2017-09-27T17:04:59.766Z,13.30
2017-09-27T17:07:28.117Z,13.50
2017-09-27T17:09:56.458Z,13.20
2017-09-27T17:12:25.547Z,14.17
2017-09-27T17:14:54.665Z,12.87
2017-09-27T17:17:23.023Z,13.80
2017-09-27T17:19:52.130Z,14.10
2017-09-27T17:22:20.462Z,13.03
2017-09-27T17:24:48.822Z,13.67
2017-09-27T17:27:17.132Z,14.73
2017-09-27T17:29:45.487Z,13.70
2017-09-27T17:32:13.809Z,15.23
2017-09-27T17:34:42.931Z,13.50
2017-09-27T17:37:11.258Z,13.77
2017-09-27T17:39:39.616Z,13.10
2017-09-27T17:42:07.943Z,14.97
2017-09-27T17:44:37.034Z,14.23
2017-09-27T17:47:05.375Z,13.67
2017-09-27T17:49:37.088Z,14.70
2017-09-27T17:52:06.214Z,14.20
2017-09-27T17:54:34.540Z,13.83
2017-09-27T17:57:02.887Z,14.50
2017-09-27T17:59:31.202Z,14.43
2017-09-27T18:02:00.308Z,14.37
2017-09-27T18:04:35.170Z,13.17
2017-09-27T18:07:09.205Z,14.40
2017-09-27T18:09:43.267Z,15.20
2017-09-27T18:12:15.032Z,14.17
2017-09-27T18:14:49.706Z,16.23
2017-09-27T18:17:27.981Z,16.20
2017-09-27T18:19:56.308Z,15.67
2017-09-27T18:22:24.648Z,15.47
2017-09-27T18:24:52.978Z,16.60
2017-09-27T18:27:21.323Z,14.70
2017-09-27T18:29:49.651Z,16.00
2017-09-27T18:32:18.790Z,16.17
2017-09-27T18:34:47.118Z,14.93
2017-09-27T18:37:15.469Z,16.27
2017-09-27T18:39:43.793Z,15.20
2017-09-27T18:42:12.929Z,15.30
2017-09-27T18:44:42.014Z,15.90
2017-09-27T18:47:10.361Z,15.53
2017-09-27T18:49:39.456Z,18.80
2017-09-27T18:52:07.813Z,18.17
2017-09-27T18:54:36.149Z,24.93
2017-09-27T18:57:04.522Z,27.13
2017-09-27T18:59:32.855Z,26.47
2017-09-27T19:02:01.190Z,27.03
2017-09-27T19:04:29.561Z,25.93
2017-09-27T19:06:58.676Z,24.90
2017-09-27T19:09:27.855Z,25.37
2017-09-27T19:11:56.205Z,25.97
2017-09-27T19:14:24.568Z,25.63
2017-09-27T19:16:52.905Z,24.37
2017-09-27T19:19:22.204Z,22.30
2017-09-27T19:21:50.550Z,23.60
2017-09-27T19:24:18.910Z,22.07
2017-09-27T19:26:47.248Z,23.00
2017-09-27T19:29:15.602Z,22.63
2017-09-27T19:31:43.972Z,21.77
2017-09-27T19:34:13.090Z,22.80
2017-09-27T19:36:41.423Z,19.57
2017-09-27T19:39:09.782Z,20.90
2017-09-27T19:41:38.109Z,19.83
2017-09-27T19:44:06.478Z,19.50
2017-09-27T19:46:35.585Z,19.73
2017-09-27T19:49:03.957Z,19.33
2017-09-27T19:51:33.054Z,18.27
2017-09-27T19:54:02.138Z,16.60
2017-09-27T19:56:30.482Z,17.90
2017-09-27T19:58:58.808Z,17.50
2017-09-27T20:01:27.931Z,17.53
2017-09-27T20:03:56.266Z,17.07
2017-09-27T20:06:25.400Z,19.07
2017-09-27T20:08:53.725Z,18.40
2017-09-27T20:11:22.069Z,19.50
2017-09-27T20:13:50.406Z,19.90
2017-09-27T20:16:19.604Z,20.80
2017-09-27T20:18:48.681Z,20.83
2017-09-27T20:21:17.024Z,19.87
2017-09-27T20:23:45.340Z,20.20
2017-09-27T20:26:13.679Z,21.50
2017-09-27T20:28:42.009Z,22.77
2017-09-27T20:31:10.354Z,21.43
2017-09-27T20:33:38.685Z,19.93
2017-09-27T20:36:07.794Z,21.20
2017-09-27T20:38:36.125Z,20.13
2017-09-27T20:41:04.480Z,19.63
2017-09-27T20:43:32.805Z,19.53
2017-09-27T20:46:01.149Z,18.00
2017-09-27T20:48:29.470Z,19.10
2017-09-27T20:50:58.573Z,18.03
2017-09-27T20:53:26.889Z,16.37
2017-09-27T20:55:56.002Z,18.80
2017-09-27T20:58:24.334Z,17.50
2017-09-27T21:00:52.653Z,17.83
2017-09-27T21:03:27.602Z,15.87
2017-09-27T21:05:55.927Z,15.80
2017-09-27T21:11:09.246Z,17.93
2017-09-27T21:13:38.514Z,16.70
2017-09-27T21:16:07.793Z,16.33
2017-09-27T21:18:36.139Z,16.50
2017-09-27T21:21:05.860Z,15.97
2017-09-27T21:23:37.426Z,16.20
2017-09-27T21:26:07.655Z,16.47
2017-09-27T21:28:38.233Z,15.73
2017-09-27T21:31:08.056Z,16.40
2017-09-27T21:33:43.142Z,16.20
2017-09-27T21:36:15.249Z,16.60
2017-09-27T21:38:52.897Z,16.80
2017-09-27T21:41:21.230Z,16.73
2017-09-27T21:43:53.191Z,15.47
2017-09-27T21:46:35.025Z,16.80
2017-09-27T21:49:03.373Z,15.37
2017-09-27T21:51:31.691Z,16.80
2017-09-27T21:54:00.028Z,15.73
2017-09-27T21:56:28.346Z,17.67
2017-09-27T21:58:56.708Z,17.70
2017-09-27T22:01:25.818Z,15.73
2017-09-27T22:03:54.215Z,17.67
2017-09-27T22:06:22.533Z,16.67
2017-09-27T22:08:50.882Z,18.13
2017-09-27T22:11:19.194Z,16.30
2017-09-27T22:13:47.538Z,20.83
2017-09-27T22:16:15.859Z,18.60
2017-09-27T22:18:44.192Z,26.47
2017-09-27T22:21:12.532Z,24.07
2017-09-27T22:23:40.888Z,25.63
2017-09-27T22:26:09.201Z,23.53
2017-09-27T22:28:37.574Z,23.77
2017-09-27T22:31:05.893Z,26.00
2017-09-27T22:33:34.219Z,27.07
2017-09-27T22:36:02.546Z,26.17
2017-09-27T22:38:30.870Z,28.10
2017-09-27T22:40:59.209Z,26.23
2017-09-27T22:43:27.517Z,21.50
2017-09-27T22:45:55.848Z,19.63
2017-09-27T22:48:24.173Z,23.60
2017-09-27T22:50:52.516Z,22.70
2017-09-27T22:53:20.831Z,23.03
2017-09-27T22:55:49.175Z,22.53
2017-09-27T22:58:17.509Z,23.53
2017-09-27T23:00:46.617Z,22.60
2017-09-27T23:03:15.708Z,23.20
2017-09-27T23:05:44.814Z,28.27
2017-09-27T23:08:13.142Z,27.83
2017-09-27T23:10:41.492Z,27.10
2017-09-27T23:13:10.578Z,26.67
2017-09-27T23:15:38.916Z,27.50
2017-09-27T23:18:07.239Z,25.13
2017-09-27T23:20:35.585Z,22.23
2017-09-27T23:23:04.684Z,26.20
2017-09-27T23:25:33.785Z,25.63
2017-09-27T23:28:02.876Z,25.07
2017-09-27T23:30:31.982Z,26.40
2017-09-27T23:33:01.057Z,23.70
2017-09-27T23:35:29.394Z,24.53
2017-09-27T23:37:57.717Z,26.17
2017-09-27T23:40:26.056Z,28.33
2017-09-27T23:42:54.392Z,26.37
2017-09-27T23:45:23.489Z,27.13
2017-09-27T23:47:52.572Z,28.70
2017-09-27T23:50:20.916Z,28.07
2017-09-27T23:52:49.229Z,28.07
2017-09-27T23:55:18.333Z,27.00
2017-09-27T23:57:47.425Z,29.43
